Latest Weather Observations for Melbourne Airport

IDV60901

Issued at 5:11 pm EDT Tuesday 26 March 2019 (issued every 10 minutes, with the page automatically refreshed every 10 minutes)

About weather observations | Map of Melbourne area stations | Latest observations for Melbourne area | Other Formats
Station Details ID: 086282 Name: MELBOURNE AIRPORT Lat: -37.67 Lon: 144.83 Height: 113.4 m
Data from the previous 72 hours. | See also: Recent months at Melbourne Airport
Date/Time
EDT
Temp
°C
App
Temp
°C
Dew
Point
°C
Rel
Hum
%
Delta-T
°C
Wind Press
QNH
hPa
Press
MSL
hPa
Rain since
9am
mm
Dir  Spd
km/h
Gust
km/h
Spd
kts
Gust
kts
26/05:00pm 20.4 13.1 -0.1 25 9.1 SW 28 41 15 22 1019.8 1019.5 0.0
26/04:30pm 20.5 14.0 0.1 25 9.1 SW 24 41 13 22 1019.8 1019.5 0.0
26/04:00pm 20.3 13.4 0.4 26 8.9 SW 26 41 14 22 1019.8 1019.5 0.0
26/03:30pm 21.1 14.3 0.5 25 9.3 SSW 26 41 14 22 1019.9 1019.6 0.0
26/03:00pm 20.6 13.3 -0.1 25 9.2 WSW 28 39 15 21 1020.1 1019.8 0.0
26/02:30pm 20.4 13.5 -0.1 25 9.1 SW 26 43 14 23 1020.1 1019.8 0.0
26/02:00pm 20.4 13.9 0.3 26 9.0 WSW 24 37 13 20 1020.3 1020.0 0.0
26/01:30pm 19.3 12.8 0.4 28 8.4 SW 24 35 13 19 1020.3 1020.0 0.0
26/01:00pm 18.4 10.4 0.5 30 7.9 SW 32 43 17 23 1020.3 1020.0 0.0
26/12:30pm 18.2 10.7 1.5 32 7.5 SW 30 43 16 23 1020.2 1019.9 0.0
26/12:00pm 18.1 10.6 1.4 32 7.5 SW 30 50 16 27 1020.0 1019.7 0.0
26/11:55am 18.6 10.8 1.6 32 7.7 WSW 32 50 17 27 1020.0 1019.7 0.0
26/11:30am 18.5 10.5 0.7 30 7.9 SW 32 46 17 25 1019.9 1019.6 0.0
26/11:00am 17.0 9.1 1.2 34 7.0 SW 32 44 17 24 1019.7 1019.4 0.0
26/10:30am 16.6 10.1 2.5 38 6.4 SW 26 35 14 19 1019.6 1019.3 0.0
26/10:00am 14.6 7.6 3.9 48 4.9 WSW 30 39 16 21 1019.3 1019.0 0.0
26/09:30am 14.1 6.7 4.1 51 4.6 WSW 32 46 17 25 1018.9 1018.6 0.0
26/09:00am 13.4 5.9 3.7 52 4.4 W 32 44 17 24 1018.5 1018.2 0.0
26/08:30am 12.7 6.0 3.8 54 4.0 W 28 35 15 19 1018.1 1017.8 0.0
26/08:00am 12.3 5.5 3.3 54 4.0 W 28 37 15 20 1017.5 1017.3 0.0
26/07:30am 11.5 6.8 3.1 56 3.7 WNW 17 33 9 18 1017.1 1016.9 0.0
26/07:00am 11.1 6.3 2.8 56 3.6 NW 17 26 9 14 1016.8 1016.6 0.0
26/06:30am 11.0 6.2 2.7 56 3.6 NW 17 26 9 14 1016.3 1016.0 0.0
26/06:00am 10.5 6.1 2.9 59 3.3 NW 15 20 8 11 1016.2 1015.9 0.0
26/05:30am 11.3 6.5 2.8 56 3.7 NW 17 26 9 14 1015.9 1015.6 0.0
26/05:00am 11.4 6.2 2.4 54 3.9 NW 19 28 10 15 1015.6 1015.3 0.0
26/04:30am 11.3 6.4 2.3 54 3.9 NW 17 24 9 13 1015.5 1015.2 0.0
26/04:00am 11.4 6.1 2.1 53 4.0 NW 19 28 10 15 1015.3 1015.0 0.0
26/03:30am 11.3 7.2 2.5 54 3.8 NNW 13 17 7 9 1015.6 1015.3 0.0
26/03:00am 11.5 7.0 1.9 51 4.1 NNW 15 22 8 12 1015.4 1015.1 0.0
26/02:30am 11.3 6.7 1.7 51 4.1 NNW 15 20 8 11 1015.6 1015.3 0.0
26/02:00am 10.7 6.1 1.4 52 3.9 NW 15 19 8 10 1015.5 1015.2 0.0
26/01:30am 11.2 6.1 0.6 48 4.4 NNW 17 26 9 14 1015.4 1015.1 0.0
26/01:00am 11.0 5.5 0.3 47 4.4 NNW 19 24 10 13 1015.1 1014.8 0.0
26/12:30am 11.2 5.4 -0.1 45 4.6 WNW 20 30 11 16 1015.2 1014.9 0.0
26/12:00am 10.9 5.6 -0.5 45 4.6 NNW 17 24 9 13 1014.9 1014.6 0.0
 
Date/Time
EDT
Temp
°C
App
Temp
°C
Dew
Point
°C
Rel
Hum
%
Delta-T
°C
Wind Press
QNH
hPa
Press
MSL
hPa
Rain since
9am
mm
Dir  Spd
km/h
Gust
km/h
Spd
kts
Gust
kts
25/11:30pm 11.3 6.0 -0.9 43 4.9 NNW 17 19 9 10 1014.7 1014.4 0.0
25/11:00pm 11.2 6.6 -1.1 42 4.9 NNW 13 17 7 9 1014.5 1014.2 0.0
25/10:30pm 10.3 5.7 -1.4 44 4.6 WNW 13 15 7 8 1014.3 1014.0 0.0
25/10:00pm 12.2 6.3 -2.0 37 5.6 WNW 19 24 10 13 1014.5 1014.2 0.0
25/09:30pm 12.9 4.9 -2.2 35 6.0 W 30 39 16 21 1014.1 1013.8 0.0
25/09:00pm 13.5 5.5 -2.7 32 6.4 W 30 39 16 21 1013.7 1013.4 0.0
25/08:30pm 13.9 6.4 -1.6 34 6.3 W 28 46 15 25 1012.9 1012.6 0.0
25/08:00pm 14.5 7.0 -1.3 33 6.5 W 28 39 15 21 1012.4 1012.1 0.0
25/07:30pm 15.2 5.5 -1.9 31 7.0 W 39 50 21 27 1012.0 1011.7 0.0
25/07:00pm 15.8 6.7 -3.2 27 7.6 W 35 44 19 24 1011.1 1010.8 0.0
25/06:36pm 16.4 6.9 -3.6 25 8.0 W 37 57 20 31 1010.7 1010.4 0.0
25/06:30pm 16.8 8.1 -3.7 24 8.2 W 33 48 18 26 1010.6 1010.3 0.0
25/06:00pm 16.6 7.0 -4.5 23 8.3 W 37 52 20 28 1010.1 1009.8 0.0
25/05:33pm 17.4 7.4 -5.1 21 8.8 W 39 57 21 31 1009.8 1009.5 0.0
25/05:30pm 17.2 6.4 -5.1 21 8.7 W 43 57 23 31 1009.8 1009.5 0.0
25/05:03pm 17.4 9.0 -2.8 25 8.3 W 32 54 17 29 1009.7 1009.4 0.0
25/05:00pm 18.1 9.2 -2.2 25 8.5 W 35 50 19 27 1009.6 1009.3 0.0
25/04:40pm 16.3 6.5 -3.4 25 7.9 W 39 57 21 31 1009.8 1009.5 0.0
25/04:30pm 17.7 7.6 -2.2 25 8.3 W 41 56 22 30 1009.8 1009.5 0.0
25/04:10pm 17.2 8.2 0.3 32 7.4 W 37 59 20 32 1009.6 1009.3 0.0
25/04:00pm 16.5 8.4 1.1 35 6.8 W 33 46 18 25 1009.6 1009.3 0.0
25/03:48pm 16.3 7.5 1.1 35 6.7 W 37 56 20 30 1009.7 1009.4 0.0
25/03:30pm 17.0 5.9 0.3 32 7.3 W 48 63 26 34 1009.6 1009.3 0.0
25/03:00pm 18.5 6.6 -0.6 27 8.3 W 52 72 28 39 1009.5 1009.2 0.0
25/02:33pm 16.1 3.8 -3.0 27 7.7 W 52 70 28 38 1009.5 1009.2 0.0
25/02:30pm 15.7 2.6 -3.3 27 7.6 W 56 70 30 38 1009.5 1009.2 0.0
25/02:01pm 16.0 5.2 -0.8 31 7.1 WSW 46 67 25 36 1008.9 1008.6 0.0
25/02:00pm 17.0 6.2 -0.4 30 7.5 WSW 46 63 25 34 1008.9 1008.6 0.0
25/01:30pm 17.2 5.9 1.0 33 7.2 W 50 72 27 39 1008.6 1008.3 0.0
25/01:00pm 17.3 7.0 0.5 32 7.4 W 44 69 24 37 1008.2 1007.9 0.0
25/12:30pm 16.8 7.7 1.6 36 6.8 W 39 61 21 33 1007.5 1007.2 0.0
25/12:23pm 17.9 9.0 0.5 31 7.7 W 37 61 20 33 1007.2 1006.9 0.0
25/12:00pm 17.4 8.2 1.0 33 7.3 W 39 50 21 27 1007.2 1006.9 0.0
25/11:40am 17.5 9.9 3.1 38 6.7 WNW 32 57 17 31 1007.2 1006.9 0.0
25/11:30am 16.6 9.1 3.5 41 6.1 W 32 41 17 22 1007.2 1006.9 0.0
25/11:00am 14.6 6.2 3.5 47 5.1 W 37 48 20 26 1007.1 1006.8 0.0
25/10:30am 15.5 8.6 4.5 48 5.2 WSW 30 41 16 22 1006.7 1006.4 0.0
25/10:00am 14.5 8.0 6.5 58 3.9 WSW 30 39 16 21 1006.5 1006.2 0.0
25/09:30am 14.2 7.2 5.9 57 4.0 WSW 32 43 17 23 1006.0 1005.7 0.0
25/09:00am 14.9 8.0 6.5 57 4.1 WSW 32 48 17 26 1005.6 1005.3 0.0
25/08:30am 15.1 10.6 6.3 55 4.3 W 19 28 10 15 1005.1 1004.8 0.0
25/08:00am 15.3 9.5 6.3 55 4.4 WSW 26 32 14 17 1004.7 1004.4 0.0
25/07:30am 16.4 11.0 8.2 58 4.2 NW 26 35 14 19 1004.1 1003.8 0.0
25/07:00am 16.5 11.5 8.1 57 4.3 NW 24 37 13 20 1003.7 1003.4 0.0
25/06:30am 16.8 12.2 8.0 56 4.5 NW 22 33 12 18 1003.4 1003.1 0.0
25/06:00am 17.2 10.4 7.8 54 4.8 WNW 33 46 18 25 1002.9 1002.6 0.0
25/05:57am 17.3 11.4 7.7 53 4.9 WNW 28 46 15 25 1002.8 1002.5 0.0
25/05:30am 17.2 10.9 7.3 52 5.0 WNW 30 37 16 20 1002.4 1002.1 0.0
25/05:00am 17.8 11.5 7.4 50 5.3 NW 30 44 16 24 1002.1 1001.8 0.0
25/04:30am 18.2 14.4 9.8 58 4.5 NW 20 32 11 17 1001.8 1001.4 0.0
25/04:00am 17.7 15.2 9.6 59 4.3 NW 13 19 7 10 1001.4 1001.0 0.0
25/03:30am 18.6 14.0 9.6 55 4.8 WNW 24 35 13 19 1001.4 1001.0 0.0
25/03:00am 19.5 14.6 9.9 54 5.2 WNW 26 35 14 19 1001.1 1000.7 0.0
25/02:30am 19.6 17.1 12.3 62 4.1 NW 17 35 9 19 1000.9 1000.5 0.0
25/02:00am 20.3 17.6 13.4 64 4.0 NNW 20 28 11 15 1000.8 1000.4 0.0
25/01:30am 21.0 17.2 14.6 67 3.8 NNW 28 37 15 20 1000.7 1000.3 0.0
25/01:00am 21.3 16.0 16.2 72 3.1 NW 39 57 21 31 1000.5 1000.1 0.0
25/12:52am 21.4 18.4 16.8 75 2.8 NW 28 50 15 27 1000.5 1000.1 0.0
25/12:41am 22.0 20.6 16.6 71 3.3 NW 19 32 10 17 1000.6 1000.2 0.0
25/12:30am 23.0 19.6 15.8 64 4.4 NNW 28 37 15 20 1000.8 1000.4 0.0
25/12:28am 23.1 19.3 15.7 63 4.5 N 30 37 16 20 1000.7 1000.3 0.0
25/12:00am 22.9 18.7 15.7 64 4.4 N 32 39 17 21 1000.2 999.9 0.0
 
Date/Time
EDT
Temp
°C
App
Temp
°C
Dew
Point
°C
Rel
Hum
%
Delta-T
°C
Wind Press
QNH
hPa
Press
MSL
hPa
Rain since
9am
mm
Dir  Spd
km/h
Gust
km/h
Spd
kts
Gust
kts
24/11:30pm 23.0 18.1 15.4 62 4.6 N 35 50 19 27 1000.1 999.8 0.0
24/11:00pm 23.6 18.7 15.2 59 5.1 NNW 35 59 19 32 1000.8 1000.4 0.0
24/10:48pm 23.7 19.7 15.1 58 5.2 N 30 46 16 25 1000.8 1000.4 0.0
24/10:30pm 23.6 18.3 15.2 59 5.0 N 37 56 20 30 1000.5 1000.1 0.0
24/10:00pm 24.1 19.2 15.2 57 5.4 N 35 54 19 29 1000.8 1000.4 0.0
24/09:51pm 24.2 19.7 15.3 57 5.4 N 33 54 18 29 1001.1 1000.7 0.0
24/09:30pm 24.0 17.0 15.2 58 5.3 N 46 59 25 32 1001.0 1000.6 0.0
24/09:00pm 23.9 18.7 15.5 59 5.1 NNW 37 50 20 27 1001.5 1001.1 0.0
24/08:45pm 24.0 17.9 15.2 58 5.3 NNW 41 59 22 32 1001.6 1001.2 0.0
24/08:37pm 24.5 17.7 14.9 55 5.8 NNW 44 65 24 35 1001.7 1001.3 0.0
24/08:33pm 24.8 18.8 14.5 52 6.2 N 39 65 21 35 1001.6 1001.2 0.0
24/08:31pm 24.7 19.5 14.5 53 6.1 N 35 59 19 32 1001.4 1001.0 0.0
24/08:30pm 24.7 19.5 14.5 53 6.1 N 35 50 19 27 1001.5 1001.1 0.0
24/08:00pm 24.8 19.6 14.5 52 6.2 N 35 52 19 28 1001.2 1000.8 0.0
24/07:30pm 25.1 20.4 14.2 50 6.5 NNW 32 41 17 22 1002.0 1001.7 0.0
24/07:19pm 25.1 20.4 14.2 50 6.5 NNW 32 50 17 27 1002.1 1001.8 0.0
24/07:00pm 25.5 20.7 13.9 48 6.9 N 32 44 17 24 1002.4 1002.1 0.0
24/06:53pm 25.6 20.5 13.8 48 7.0 N 33 52 18 28 1002.3 1002.0 0.0
24/06:30pm 25.8 19.1 13.5 46 7.3 N 41 54 22 29 1002.5 1002.2 0.0
24/06:25pm 26.0 20.4 13.3 45 7.5 NNW 35 54 19 29 1002.6 1002.3 0.0
24/06:00pm 26.4 20.6 12.6 42 8.1 NNW 35 52 19 28 1002.9 1002.6 0.0
24/05:38pm 26.9 21.1 12.8 41 8.3 N 35 54 19 29 1003.1 1002.8 0.0
24/05:30pm 26.7 19.3 12.5 41 8.3 N 43 54 23 29 1003.3 1003.0 0.0
24/05:07pm 26.8 19.7 12.2 40 8.5 NNW 41 59 22 32 1003.6 1003.3 0.0
24/05:00pm 26.8 19.4 12.4 40 8.4 N 43 59 23 32 1003.7 1003.4 0.0
24/04:30pm 26.6 18.5 11.9 40 8.5 N 46 63 25 34 1004.1 1003.8 0.0
24/04:23pm 26.7 18.8 11.6 39 8.7 N 44 63 24 34 1004.3 1004.0 0.0
24/04:00pm 26.8 19.0 11.0 37 9.0 N 43 59 23 32 1004.3 1004.0 0.0
24/03:41pm 27.2 19.1 10.7 35 9.4 N 44 63 24 34 1004.4 1004.1 0.0
24/03:30pm 28.0 19.8 10.4 33 10.0 N 44 59 24 32 1004.5 1004.2 0.0
24/03:00pm 29.3 21.0 9.4 29 11.2 N 43 61 23 33 1004.8 1004.5 0.0
24/02:50pm 30.0 22.5 9.5 28 11.6 N 39 59 21 32 1004.8 1004.5 0.0
24/02:30pm 30.5 23.7 9.2 26 12.0 NNW 35 52 19 28 1005.3 1005.0 0.0
24/02:00pm 29.2 22.3 8.9 28 11.3 N 35 52 19 28 1005.9 1005.6 0.0
24/01:44pm 28.6 21.4 9.0 29 10.9 N 37 56 20 30 1006.4 1006.1 0.0
24/01:30pm 29.0 21.7 8.9 28 11.2 N 37 50 20 27 1006.6 1006.3 0.0
24/01:00pm 27.8 20.9 9.0 30 10.4 NNW 35 44 19 24 1007.2 1006.9 0.0
24/12:36pm 28.3 22.0 9.8 31 10.4 N 33 52 18 28 1007.7 1007.4 0.0
24/12:30pm 27.0 20.7 9.6 33 9.7 N 33 43 18 23 1007.7 1007.4 0.0
24/12:00pm 26.7 22.5 11.1 37 8.9 N 24 35 13 19 1008.4 1008.1 0.0
24/11:30am 26.1 21.2 11.4 39 8.4 N 28 37 15 20 1009.1 1008.8 0.0
24/11:00am 25.0 20.7 11.9 44 7.5 N 26 35 14 19 1009.9 1009.6 0.0
24/10:30am 23.5 19.7 13.6 53 5.8 N 26 35 14 19 1010.5 1010.2 0.0
24/10:00am 22.1 19.7 13.9 59 4.8 NNE 19 28 10 15 1010.8 1010.5 0.0
24/09:30am 20.5 18.1 13.8 65 3.9 N 19 22 10 12 1011.2 1010.9 0.0
24/09:00am 18.2 15.7 14.2 77 2.3 N 20 26 11 14 1011.3 1011.0 1.0
24/08:30am 17.4 15.6 14.5 83 1.7 N 17 20 9 11 1011.6 1011.3 1.0
24/08:00am 15.4 13.4 13.8 90 0.9 N 17 19 9 10 1011.6 1011.3 1.0
24/07:30am 15.1 15.0 13.9 92 0.7 N 7 9 4 5 1011.3 1011.0 1.0
24/07:00am 15.1 14.9 13.5 90 0.9 NNW 7 9 4 5 1011.2 1010.9 1.0
24/06:30am 16.0 15.6 14.1 88 1.1 NNW 9 11 5 6 1011.1 1010.8 1.0
24/06:00am 16.2 16.2 14.3 88 1.1 N 7 7 4 4 1010.8 1010.5 1.0
24/05:30am 16.5 17.5 14.2 86 1.3 NE 2 9 1 5 1010.5 1010.2 1.0
24/05:00am 17.5 17.4 14.9 85 1.5 NE 9 15 5 8 1010.4 1010.1 1.0
24/04:30am 17.8 17.8 15.1 84 1.6 NE 9 11 5 6 1010.3 1010.0 1.0
24/04:00am 17.6 17.0 14.7 83 1.7 NE 11 13 6 7 1010.3 1010.0 1.0
24/03:30am 17.6 17.3 14.5 82 1.8 ENE 9 9 5 5 1010.9 1010.6 1.0
24/03:00am 18.0 17.5 14.9 82 1.8 ENE 11 11 6 6 1011.5 1011.2 1.0
24/02:30am 18.2 18.7 15.5 84 1.6 NE 7 9 4 5 1011.8 1011.5 1.0
24/02:00am 18.3 18.7 15.4 83 1.7 SE 7 9 4 5 1011.7 1011.4 1.0
24/01:30am 18.5 18.3 15.6 83 1.7 SE 11 13 6 7 1012.0 1011.7 1.0
24/01:00am 18.4 18.6 15.7 84 1.6 SSE 9 11 5 6 1011.9 1011.6 1.0
24/12:30am 18.7 18.4 15.5 81 1.9 SSE 11 13 6 7 1011.9 1011.6 1.0
24/12:00am 18.8 17.7 15.4 80 2.0 SSE 15 17 8 9 1012.0 1011.7 1.0
 
Date/Time
EDT
Temp
°C
App
Temp
°C
Dew
Point
°C
Rel
Hum
%
Delta-T
°C
Wind Press
QNH
hPa
Press
MSL
hPa
Rain since
9am
mm
Dir  Spd
km/h
Gust
km/h
Spd
kts
Gust
kts
23/11:30pm 18.8 18.3 14.9 78 2.3 SE 11 15 6 8 1011.8 1011.5 1.0
23/11:00pm 19.2 18.7 14.9 76 2.5 ESE 11 15 6 8 1011.4 1011.1 1.0
23/10:30pm 18.7 18.9 15.7 83 1.8 ENE 9 13 5 7 1011.3 1011.0 1.0
23/10:00pm 19.2 19.0 15.7 80 2.1 E 11 17 6 9 1011.0 1010.7 1.0
23/09:30pm 19.3 18.0 15.8 80 2.1 SE 17 20 9 11 1010.8 1010.5 1.0
23/09:00pm 19.4 18.6 16.2 82 1.9 SE 15 20 8 11 1010.5 1010.2 1.0
23/08:30pm 19.2 18.7 16.0 82 1.9 SSE 13 15 7 8 1010.0 1009.7 1.0
23/08:00pm 19.2 18.4 16.0 82 1.9 SSE 15 19 8 10 1009.5 1009.2 1.0
23/07:30pm 19.5 18.4 16.4 82 1.9 SSE 17 24 9 13 1009.0 1008.7 1.0
23/07:00pm 20.3 18.1 16.9 81 2.1 SSE 24 32 13 17 1008.2 1007.9 1.0
23/06:30pm 21.3 17.4 16.4 73 3.0 S 32 43 17 23 1006.9 1006.6 1.0
23/06:10pm 24.6 23.0 16.1 59 5.2 S 19 33 10 18 1006.3 1006.0 1.0
23/06:00pm 29.8 25.9 12.1 33 10.4 NNW 24 39 13 21 1005.6 1005.3 1.0
23/05:30pm 29.7 24.3 12.2 34 10.3 N 32 39 17 21 1005.1 1004.8 1.0

Latest Capital City Observations: Canberra | Sydney | Melbourne | Brisbane | Adelaide | Perth | Hobart | Darwin

Other formats

Comma delimited format used in spreadsheet applications
http://www.bom.gov.au/fwo/IDV60901/IDV60901.94866.axf

JavaScript Object Notation format (JSON) in row-major order
http://www.bom.gov.au/fwo/IDV60901/IDV60901.94866.json

Data quality

Most of these data are generated automatically and are frequently updated. Quality checks on data are not normally performed. It is possible for incorrect values to appear. Refer to information at About Latest Weather Observations and please check the disclaimer before using these data.